createdAt,value
2022-10-24T00:00:58.707Z,13.23
2022-10-24T00:03:30.703Z,13.24
2022-10-24T00:06:02.195Z,13.17
2022-10-24T00:08:33.994Z,13.13
2022-10-24T00:11:05.488Z,13.11
2022-10-24T00:13:37.364Z,13.08
2022-10-24T00:16:08.848Z,13.06
2022-10-24T00:18:40.683Z,13.02
2022-10-24T00:21:12.167Z,13.03
2022-10-24T00:23:44.157Z,13.06
2022-10-24T00:26:17.058Z,13.00
2022-10-24T00:28:48.593Z,13.02
2022-10-24T00:31:20.250Z,13.00
2022-10-24T00:33:51.736Z,12.95
2022-10-24T00:36:23.560Z,12.97
2022-10-24T00:38:55.044Z,12.94
2022-10-24T00:41:27.091Z,12.92
2022-10-24T00:43:58.582Z,12.91
2022-10-24T00:46:30.443Z,12.88
2022-10-24T00:49:01.922Z,12.86
2022-10-24T00:51:33.783Z,11.40
2022-10-24T00:54:05.281Z,12.86
2022-10-24T00:56:37.111Z,12.81
2022-10-24T00:59:08.598Z,12.80
2022-10-24T01:01:40.285Z,12.84
2022-10-24T01:04:11.800Z,12.86
2022-10-24T01:06:43.348Z,12.90
2022-10-24T01:09:14.831Z,12.91
2022-10-24T01:11:46.689Z,12.91
2022-10-24T01:14:18.177Z,12.93
2022-10-24T01:16:50.045Z,12.93
2022-10-24T01:19:21.536Z,12.92
2022-10-24T01:21:53.333Z,12.90
2022-10-24T01:24:24.822Z,12.89
2022-10-24T01:26:56.572Z,12.89
2022-10-24T01:29:28.086Z,11.20
2022-10-24T01:31:59.987Z,12.87
2022-10-24T01:34:31.460Z,12.86
2022-10-24T01:37:03.378Z,12.84
2022-10-24T01:39:34.871Z,12.81
2022-10-24T01:42:06.662Z,12.78
2022-10-24T01:44:38.141Z,12.75
2022-10-24T01:47:09.933Z,12.74
2022-10-24T01:49:41.425Z,12.74
2022-10-24T01:54:49.869Z,12.73
2022-10-24T01:57:21.742Z,12.72
2022-10-24T01:59:53.234Z,12.71
2022-10-24T02:02:25.068Z,12.68
2022-10-24T02:04:56.548Z,12.66
2022-10-24T02:07:28.378Z,12.59
2022-10-24T02:10:04.700Z,12.51
2022-10-24T02:12:36.806Z,12.43
2022-10-24T02:15:08.321Z,12.46
2022-10-24T02:17:40.179Z,12.46
2022-10-24T02:20:11.667Z,12.33
2022-10-24T02:22:43.591Z,10.94
2022-10-24T02:25:15.080Z,12.39
2022-10-24T02:27:47.192Z,12.37
2022-10-24T02:30:19.179Z,12.31
2022-10-24T02:32:50.949Z,12.27
2022-10-24T02:35:22.449Z,12.31
2022-10-24T02:37:54.424Z,12.33
2022-10-24T02:40:26.041Z,12.32
2022-10-24T02:42:58.707Z,12.35
2022-10-24T02:45:30.208Z,12.32
2022-10-24T02:48:02.875Z,12.34
2022-10-24T02:50:34.393Z,12.34
2022-10-24T02:53:06.368Z,12.28
2022-10-24T02:55:38.361Z,12.23
2022-10-24T02:58:10.415Z,12.20
2022-10-24T03:00:42.014Z,12.15
2022-10-24T03:03:13.892Z,12.19
2022-10-24T03:05:45.419Z,12.19
2022-10-24T03:08:17.244Z,12.23
2022-10-24T03:10:48.764Z,12.21
2022-10-24T03:13:20.599Z,12.21
2022-10-24T03:15:52.117Z,12.24
2022-10-24T03:18:23.949Z,12.22
2022-10-24T03:20:55.846Z,12.19
2022-10-24T03:23:28.617Z,12.17
2022-10-24T03:26:00.458Z,12.15
2022-10-24T03:28:31.964Z,12.11
2022-10-24T03:31:03.798Z,12.11
2022-10-24T03:33:35.312Z,12.08
2022-10-24T03:36:07.191Z,12.06
2022-10-24T03:38:38.676Z,12.05
2022-10-24T03:41:10.641Z,12.04
2022-10-24T03:43:42.127Z,12.07
2022-10-24T03:46:13.958Z,12.06
2022-10-24T03:48:45.461Z,12.06
2022-10-24T03:51:17.262Z,12.08
2022-10-24T03:53:48.796Z,12.08
2022-10-24T03:56:20.602Z,12.06
2022-10-24T03:58:52.091Z,12.08
2022-10-24T04:01:24.758Z,12.05
2022-10-24T04:03:56.321Z,12.04
2022-10-24T04:06:30.277Z,12.05
2022-10-24T04:09:04.141Z,12.02
2022-10-24T04:11:35.941Z,12.01
2022-10-24T04:14:09.462Z,12.01
2022-10-24T04:16:41.204Z,12.00
2022-10-24T04:19:12.763Z,11.99
2022-10-24T04:21:44.673Z,11.98
2022-10-24T04:24:16.174Z,11.99
2022-10-24T04:26:48.018Z,11.99
2022-10-24T04:29:19.527Z,12.01
2022-10-24T04:31:51.312Z,12.06
2022-10-24T04:34:22.821Z,12.07
2022-10-24T04:36:54.637Z,12.09
2022-10-24T04:39:26.130Z,12.10
2022-10-24T04:41:57.965Z,12.13
2022-10-24T04:44:29.525Z,12.14
2022-10-24T04:47:01.075Z,12.15
2022-10-24T04:49:32.565Z,12.15
2022-10-24T04:52:04.067Z,12.15
2022-10-24T04:54:35.564Z,12.17
2022-10-24T04:57:07.076Z,12.16
2022-10-24T04:59:38.639Z,12.14
2022-10-24T05:02:10.196Z,12.12
2022-10-24T05:04:41.790Z,12.12
2022-10-24T05:07:13.347Z,12.09
2022-10-24T05:09:44.852Z,12.09
2022-10-24T05:12:16.483Z,12.09
2022-10-24T05:14:48.097Z,12.07
2022-10-24T05:17:20.083Z,12.08
2022-10-24T05:19:51.563Z,12.06
2022-10-24T05:22:24.481Z,12.06
2022-10-24T05:24:55.992Z,12.05
2022-10-24T05:27:27.963Z,12.05
2022-10-24T05:29:59.472Z,12.06
2022-10-24T05:32:32.824Z,12.08
2022-10-24T05:35:06.362Z,12.07
2022-10-24T05:37:38.882Z,12.06
2022-10-24T05:40:10.505Z,12.08
2022-10-24T05:42:42.270Z,12.07
2022-10-24T05:45:14.257Z,12.06
2022-10-24T05:47:46.022Z,12.06
2022-10-24T05:50:18.038Z,10.52
2022-10-24T05:52:49.576Z,12.00
2022-10-24T05:55:21.093Z,11.98
2022-10-24T05:57:52.598Z,11.97
2022-10-24T06:00:24.139Z,11.99
2022-10-24T06:02:55.657Z,11.99
2022-10-24T06:05:27.162Z,12.01
2022-10-24T06:07:58.653Z,12.03
2022-10-24T06:10:30.159Z,12.02
2022-10-24T06:13:01.669Z,12.05
2022-10-24T06:15:33.172Z,12.08
2022-10-24T06:18:04.695Z,12.13
2022-10-24T06:20:36.256Z,12.15
2022-10-24T06:23:07.753Z,12.14
2022-10-24T06:25:39.613Z,12.19
2022-10-24T06:28:12.365Z,12.22
2022-10-24T06:30:44.223Z,12.30
2022-10-24T06:33:15.703Z,12.37
2022-10-24T06:35:47.269Z,12.45
2022-10-24T06:38:18.802Z,12.56
2022-10-24T06:40:50.308Z,12.57
2022-10-24T06:43:21.818Z,12.63
2022-10-24T06:45:53.365Z,12.64
2022-10-24T06:48:24.852Z,12.66
2022-10-24T06:50:56.426Z,12.61
2022-10-24T06:53:27.979Z,12.68
2022-10-24T06:55:59.470Z,12.70
2022-10-24T06:58:30.971Z,12.67
2022-10-24T07:01:02.541Z,12.76
2022-10-24T07:03:34.107Z,12.79
2022-10-24T07:06:05.638Z,12.82
2022-10-24T07:08:37.143Z,12.88
2022-10-24T07:11:08.651Z,13.01
2022-10-24T07:13:40.145Z,13.08
2022-10-24T07:16:11.674Z,13.16
2022-10-24T07:18:43.166Z,13.25
2022-10-24T07:21:14.673Z,13.38
2022-10-24T07:23:46.178Z,13.49
2022-10-24T07:26:17.786Z,13.71
2022-10-24T07:28:53.370Z,13.77
2022-10-24T07:31:24.983Z,13.83
2022-10-24T07:33:56.513Z,14.06
2022-10-24T07:36:28.566Z,14.07
2022-10-24T07:39:00.108Z,14.22
2022-10-24T07:41:31.640Z,14.36
2022-10-24T07:44:03.192Z,14.46
2022-10-24T07:46:35.221Z,14.54
2022-10-24T07:49:06.855Z,14.54
2022-10-24T07:51:38.674Z,14.64
2022-10-24T07:54:10.226Z,14.73
2022-10-24T07:56:41.939Z,14.75
2022-10-24T07:59:23.961Z,14.78
2022-10-24T08:02:04.931Z,14.94
2022-10-24T08:04:36.437Z,14.97
2022-10-24T08:07:13.719Z,15.11
2022-10-24T08:09:45.536Z,13.47
2022-10-24T08:12:17.338Z,15.21
2022-10-24T08:14:48.906Z,15.40
2022-10-24T08:17:21.577Z,15.44
2022-10-24T08:19:53.810Z,15.55
2022-10-24T08:25:25.406Z,15.74
2022-10-24T08:27:56.923Z,15.98
2022-10-24T08:33:18.665Z,16.10
2022-10-24T08:35:51.563Z,16.14
2022-10-24T08:38:23.237Z,16.38
2022-10-24T08:40:54.949Z,16.30
2022-10-24T08:43:26.436Z,16.53
2022-10-24T08:45:57.898Z,16.67
2022-10-24T08:48:29.411Z,16.69
2022-10-24T08:51:03.223Z,16.72
2022-10-24T08:53:43.714Z,16.87
2022-10-24T08:56:18.303Z,17.04
2022-10-24T08:58:51.826Z,17.11
2022-10-24T09:01:23.377Z,17.19
2022-10-24T09:03:56.463Z,17.24
2022-10-24T09:06:28.981Z,17.31
2022-10-24T09:09:00.448Z,17.16
2022-10-24T09:11:32.904Z,17.25
2022-10-24T09:14:04.373Z,17.40
2022-10-24T09:16:35.849Z,17.40
2022-10-24T09:19:07.318Z,17.36
2022-10-24T09:21:39.068Z,17.37
2022-10-24T09:24:10.531Z,17.47
2022-10-24T09:26:44.228Z,17.52
2022-10-24T09:29:15.772Z,17.62
2022-10-24T09:31:50.211Z,17.75
2022-10-24T09:34:21.714Z,17.60
2022-10-24T09:36:53.534Z,17.86
2022-10-24T09:39:25.066Z,18.09
2022-10-24T09:41:56.918Z,18.09
2022-10-24T09:44:28.383Z,18.29
2022-10-24T09:47:00.204Z,18.22
2022-10-24T09:49:31.709Z,18.22
2022-10-24T09:52:03.750Z,18.31
2022-10-24T09:54:35.268Z,18.30
2022-10-24T09:57:08.145Z,18.34
2022-10-24T09:59:41.856Z,18.23
2022-10-24T10:02:14.157Z,18.29
2022-10-24T10:04:45.700Z,18.34
2022-10-24T10:07:17.173Z,18.45
2022-10-24T10:09:51.603Z,18.52
2022-10-24T10:12:26.937Z,18.41
2022-10-24T10:14:58.764Z,18.37
2022-10-24T10:17:33.332Z,18.54
2022-10-24T10:20:05.174Z,18.63
2022-10-24T10:22:36.641Z,18.39
2022-10-24T10:25:08.439Z,18.37
2022-10-24T10:27:39.913Z,18.61
2022-10-24T10:30:11.806Z,18.69
2022-10-24T10:32:43.268Z,18.47
2022-10-24T10:35:15.226Z,18.69
2022-10-24T10:37:46.989Z,18.28
2022-10-24T10:40:19.004Z,18.81
2022-10-24T10:42:50.576Z,18.76
2022-10-24T10:45:22.380Z,18.61
2022-10-24T10:47:53.828Z,18.49
2022-10-24T10:50:25.610Z,18.49
2022-10-24T10:52:57.087Z,18.48
2022-10-24T10:55:29.014Z,18.56
2022-10-24T10:58:00.467Z,18.48
2022-10-24T11:00:32.424Z,18.60
2022-10-24T11:03:03.937Z,18.32
2022-10-24T11:05:35.872Z,18.58
2022-10-24T11:08:07.337Z,18.74
2022-10-24T11:10:39.156Z,18.96
2022-10-24T11:13:10.612Z,19.06
2022-10-24T11:15:42.395Z,19.01
2022-10-24T11:18:13.859Z,19.02
2022-10-24T11:20:45.879Z,19.04
2022-10-24T11:23:17.330Z,18.82
2022-10-24T11:25:49.289Z,18.91
2022-10-24T11:28:20.740Z,19.01
2022-10-24T11:30:52.536Z,18.84
2022-10-24T11:33:24.015Z,18.83
2022-10-24T11:35:55.867Z,18.82
2022-10-24T11:38:27.371Z,18.91
2022-10-24T11:41:00.244Z,18.89
2022-10-24T11:43:33.032Z,18.76
2022-10-24T11:46:04.929Z,18.69
2022-10-24T11:48:36.673Z,18.92
2022-10-24T11:51:08.157Z,18.76
2022-10-24T11:53:39.943Z,18.91
2022-10-24T11:56:12.101Z,18.84
2022-10-24T11:58:43.979Z,18.86
2022-10-24T12:01:15.482Z,18.82
2022-10-24T12:03:47.274Z,18.72
2022-10-24T12:06:18.748Z,18.77
2022-10-24T12:08:50.511Z,18.90
2022-10-24T12:11:21.996Z,19.08
2022-10-24T12:13:53.551Z,19.03
2022-10-24T12:16:25.254Z,19.21
2022-10-24T12:18:57.056Z,19.15
2022-10-24T12:21:28.557Z,19.22
2022-10-24T12:24:00.493Z,19.00
2022-10-24T12:26:31.966Z,19.05
2022-10-24T12:29:03.755Z,18.99
2022-10-24T12:31:35.252Z,18.82
2022-10-24T12:34:07.170Z,19.06
2022-10-24T12:36:38.628Z,18.95
2022-10-24T12:39:10.648Z,19.07
2022-10-24T12:41:42.185Z,19.25
2022-10-24T12:44:14.012Z,19.30
2022-10-24T12:46:45.480Z,19.28
2022-10-24T12:49:16.956Z,19.44
2022-10-24T12:51:48.451Z,19.53
2022-10-24T12:54:21.251Z,19.61
2022-10-24T12:56:52.752Z,19.27
2022-10-24T12:59:24.546Z,19.63
2022-10-24T13:01:59.943Z,19.52
2022-10-24T13:04:34.133Z,19.51
2022-10-24T13:07:05.639Z,19.79
2022-10-24T13:09:37.695Z,19.49
2022-10-24T13:12:09.166Z,19.64
2022-10-24T13:14:40.744Z,19.73
2022-10-24T13:17:12.233Z,19.55
2022-10-24T13:19:43.892Z,19.93
2022-10-24T13:22:15.350Z,19.79
2022-10-24T13:24:46.837Z,20.01
2022-10-24T13:27:18.302Z,20.08
2022-10-24T13:29:49.844Z,20.09
2022-10-24T13:32:21.947Z,19.79
2022-10-24T13:34:53.458Z,19.77
2022-10-24T13:37:24.918Z,19.71
2022-10-24T13:39:56.436Z,19.71
2022-10-24T13:42:27.961Z,19.53
2022-10-24T13:44:59.926Z,19.36
2022-10-24T13:47:31.482Z,19.30
2022-10-24T13:50:03.042Z,19.31
2022-10-24T13:52:34.607Z,19.23
2022-10-24T13:55:06.443Z,19.13
2022-10-24T13:57:38.258Z,19.18
2022-10-24T14:00:10.022Z,19.13
2022-10-24T14:02:41.715Z,19.16
2022-10-24T14:05:13.202Z,19.10
2022-10-24T14:07:44.654Z,18.96
2022-10-24T14:10:19.774Z,18.85
2022-10-24T14:12:56.864Z,18.85
2022-10-24T14:15:28.391Z,18.87
2022-10-24T14:17:59.871Z,18.83
2022-10-24T14:20:31.419Z,18.78
2022-10-24T14:23:15.827Z,18.85
2022-10-24T14:25:47.317Z,18.94
2022-10-24T14:28:20.851Z,18.97
2022-10-24T14:30:52.329Z,19.14
2022-10-24T14:33:23.849Z,18.20
2022-10-24T14:35:57.856Z,19.09
2022-10-24T14:38:29.793Z,19.07
2022-10-24T14:41:08.774Z,18.88
2022-10-24T14:43:42.494Z,18.94
2022-10-24T14:46:14.360Z,19.04
2022-10-24T14:48:46.223Z,19.24
2022-10-24T14:51:18.758Z,19.13
2022-10-24T14:53:51.365Z,19.07
2022-10-24T14:56:22.885Z,18.80
2022-10-24T14:58:54.783Z,18.83
2022-10-24T15:01:26.361Z,18.67
2022-10-24T15:03:58.234Z,18.72
2022-10-24T15:06:30.150Z,18.63
2022-10-24T15:09:04.619Z,18.50
2022-10-24T15:11:36.548Z,18.42
2022-10-24T15:14:08.491Z,18.33
2022-10-24T15:16:40.729Z,18.26
2022-10-24T15:19:12.255Z,18.18
2022-10-24T15:21:43.738Z,18.09
2022-10-24T15:24:15.774Z,17.98
2022-10-24T15:26:47.316Z,17.89
2022-10-24T15:29:19.091Z,17.85
2022-10-24T15:31:50.592Z,17.80
2022-10-24T15:34:22.565Z,17.70
2022-10-24T15:36:54.109Z,17.64
2022-10-24T15:39:25.681Z,17.60
2022-10-24T15:41:57.298Z,17.55
2022-10-24T15:44:29.280Z,17.45
2022-10-24T15:47:01.237Z,17.36
2022-10-24T15:49:33.110Z,17.26
2022-10-24T15:52:04.606Z,17.19
2022-10-24T15:54:36.106Z,17.17
2022-10-24T15:57:07.593Z,17.14
2022-10-24T15:59:39.090Z,17.14
2022-10-24T16:02:10.624Z,17.11
2022-10-24T16:04:42.656Z,17.07
2022-10-24T16:07:14.202Z,17.04
2022-10-24T16:09:46.021Z,17.00
2022-10-24T16:12:17.529Z,16.93
2022-10-24T16:14:49.339Z,16.87
2022-10-24T16:17:20.874Z,16.89
2022-10-24T16:19:52.675Z,16.86
2022-10-24T16:22:24.188Z,16.83
2022-10-24T16:24:55.717Z,16.79
2022-10-24T16:27:27.219Z,16.75
2022-10-24T16:29:58.760Z,16.71
2022-10-24T16:32:30.262Z,16.68
2022-10-24T16:35:02.056Z,16.66
2022-10-24T16:37:33.518Z,16.62
2022-10-24T16:40:05.413Z,16.61
2022-10-24T16:42:36.922Z,16.60
2022-10-24T16:45:08.765Z,16.56
2022-10-24T16:47:40.267Z,16.58
2022-10-24T16:50:12.261Z,16.63
2022-10-24T16:52:44.856Z,16.59
2022-10-24T16:55:16.898Z,16.54
2022-10-24T16:57:48.646Z,16.54
2022-10-24T17:00:20.305Z,16.46
2022-10-24T17:02:51.905Z,16.50
2022-10-24T17:05:23.858Z,16.43
2022-10-24T17:07:55.737Z,16.42
2022-10-24T17:10:27.242Z,16.36
2022-10-24T17:13:01.281Z,16.36
2022-10-24T17:15:32.767Z,16.31
2022-10-24T17:18:04.842Z,16.33
2022-10-24T17:20:36.358Z,16.28
2022-10-24T17:23:08.273Z,16.24
2022-10-24T17:25:39.775Z,16.18
2022-10-24T17:28:11.760Z,16.13
2022-10-24T17:30:43.303Z,16.09
2022-10-24T17:33:15.297Z,16.09
2022-10-24T17:35:47.312Z,16.05
2022-10-24T17:38:19.338Z,16.04
2022-10-24T17:40:50.862Z,16.04
2022-10-24T17:43:22.750Z,16.01
2022-10-24T17:45:54.245Z,16.00
2022-10-24T17:48:26.102Z,15.98
2022-10-24T17:50:57.570Z,15.96
2022-10-24T17:53:29.139Z,15.93
2022-10-24T17:56:00.655Z,15.88
2022-10-24T17:58:32.755Z,15.84
2022-10-24T18:01:04.366Z,15.80
2022-10-24T18:03:36.399Z,14.79
2022-10-24T18:06:07.979Z,15.71
2022-10-24T18:08:39.812Z,15.70
2022-10-24T18:11:12.803Z,15.66
2022-10-24T18:13:44.626Z,15.66
2022-10-24T18:16:16.614Z,15.62
2022-10-24T18:18:48.175Z,15.59
2022-10-24T18:21:19.899Z,15.54
2022-10-24T18:23:51.969Z,15.52
2022-10-24T18:26:23.509Z,15.49
2022-10-24T18:28:55.352Z,15.48
2022-10-24T18:31:26.858Z,15.44
2022-10-24T18:33:58.769Z,15.45
2022-10-24T18:36:30.277Z,15.45
2022-10-24T18:39:02.341Z,15.42
2022-10-24T18:41:34.051Z,15.45
2022-10-24T18:44:06.016Z,15.48
2022-10-24T18:46:38.302Z,15.49
2022-10-24T18:49:10.161Z,15.45
2022-10-24T18:51:41.673Z,15.46
2022-10-24T18:54:13.509Z,15.44
2022-10-24T18:56:46.638Z,15.47
2022-10-24T18:59:18.438Z,15.45
2022-10-24T19:01:50.114Z,15.42
2022-10-24T19:04:22.156Z,15.42
2022-10-24T19:06:53.660Z,15.39
2022-10-24T19:09:25.507Z,15.38
2022-10-24T19:11:56.986Z,15.47
2022-10-24T19:14:28.858Z,15.51
2022-10-24T19:17:01.393Z,15.50
2022-10-24T19:19:34.841Z,15.48
2022-10-24T19:22:06.437Z,15.48
2022-10-24T19:24:38.305Z,15.53
2022-10-24T19:27:09.863Z,15.49
2022-10-24T19:29:41.746Z,15.49
2022-10-24T19:32:13.251Z,15.50
2022-10-24T19:34:45.131Z,15.51
2022-10-24T19:37:16.629Z,15.55
2022-10-24T19:39:48.779Z,15.53
2022-10-24T19:42:20.274Z,15.50
2022-10-24T19:44:54.602Z,15.52
2022-10-24T19:47:26.294Z,15.53
2022-10-24T19:49:58.112Z,15.51
2022-10-24T19:52:29.827Z,15.53
2022-10-24T19:55:01.694Z,15.50
2022-10-24T19:57:33.539Z,15.43
2022-10-24T20:00:05.039Z,15.47
2022-10-24T20:02:36.556Z,15.48
2022-10-24T20:05:08.062Z,15.42
2022-10-24T20:07:39.906Z,15.41
2022-10-24T20:10:11.523Z,15.39
2022-10-24T20:12:43.232Z,15.36
2022-10-24T20:15:15.758Z,15.34
2022-10-24T20:17:47.559Z,15.29
2022-10-24T20:20:19.788Z,15.29
2022-10-24T20:22:51.695Z,15.21
2022-10-24T20:25:23.175Z,15.19
2022-10-24T20:27:54.720Z,15.09
2022-10-24T20:30:26.191Z,15.09
2022-10-24T20:32:57.703Z,15.07
2022-10-24T20:35:29.377Z,15.01
2022-10-24T20:38:01.149Z,15.00
2022-10-24T20:40:32.614Z,14.98
2022-10-24T20:43:05.055Z,14.95
2022-10-24T20:45:36.888Z,14.90
2022-10-24T20:48:08.718Z,14.84
2022-10-24T20:50:40.168Z,14.79
2022-10-24T20:53:11.909Z,14.69
2022-10-24T20:55:44.634Z,14.66
2022-10-24T20:58:16.658Z,14.64
2022-10-24T21:00:48.164Z,14.59
2022-10-24T21:03:19.941Z,14.55
2022-10-24T21:05:51.407Z,14.52
2022-10-24T21:08:23.193Z,14.50
2022-10-24T21:10:54.700Z,14.44
2022-10-24T21:13:26.463Z,14.38
2022-10-24T21:15:57.924Z,14.34
2022-10-24T21:18:29.850Z,14.33
2022-10-24T21:21:01.306Z,14.31
2022-10-24T21:23:33.268Z,14.25
2022-10-24T21:26:04.765Z,14.24
2022-10-24T21:28:36.243Z,14.21
2022-10-24T21:31:07.750Z,14.18
2022-10-24T21:33:41.568Z,14.16
2022-10-24T21:36:13.047Z,14.13
2022-10-24T21:38:44.813Z,14.11
2022-10-24T21:41:16.327Z,14.07
2022-10-24T21:43:48.258Z,14.04
2022-10-24T21:46:19.738Z,14.02
2022-10-24T21:48:51.581Z,13.97
2022-10-24T21:51:23.064Z,13.95
2022-10-24T21:53:54.874Z,13.90
2022-10-24T21:56:26.359Z,13.90
2022-10-24T22:01:38.112Z,13.80
2022-10-24T22:04:10.050Z,13.74
2022-10-24T22:06:41.529Z,13.73
2022-10-24T22:09:13.371Z,13.73
2022-10-24T22:11:44.842Z,13.72
2022-10-24T22:14:16.623Z,13.73
2022-10-24T22:16:48.089Z,13.72
2022-10-24T22:19:19.875Z,13.72
2022-10-24T22:21:51.418Z,13.75
2022-10-24T22:24:22.967Z,13.69
2022-10-24T22:26:54.444Z,13.74
2022-10-24T22:29:26.357Z,13.76
2022-10-24T22:31:57.846Z,13.74
2022-10-24T22:34:29.803Z,13.74
2022-10-24T22:37:01.252Z,13.73
2022-10-24T22:39:33.013Z,13.72
2022-10-24T22:42:04.472Z,13.71
2022-10-24T22:44:35.978Z,13.70
2022-10-24T22:47:07.435Z,13.65
2022-10-24T22:49:39.222Z,13.60
2022-10-24T22:52:11.169Z,13.58
2022-10-24T22:54:42.936Z,13.55
2022-10-24T22:57:14.479Z,13.53
2022-10-24T22:59:46.370Z,13.53
2022-10-24T23:02:17.957Z,13.51
2022-10-24T23:04:49.803Z,13.52
2022-10-24T23:07:23.688Z,13.51
2022-10-24T23:09:58.363Z,13.48
2022-10-24T23:12:30.153Z,13.46
2022-10-24T23:15:01.640Z,13.43
2022-10-24T23:17:33.620Z,13.39
2022-10-24T23:20:05.070Z,13.33
2022-10-24T23:22:36.863Z,13.35
2022-10-24T23:25:08.339Z,13.31
2022-10-24T23:27:40.116Z,13.30
2022-10-24T23:30:11.586Z,13.26
2022-10-24T23:32:43.649Z,13.23
2022-10-24T23:35:15.301Z,13.21
2022-10-24T23:37:47.229Z,13.17
2022-10-24T23:40:18.683Z,13.14
2022-10-24T23:42:50.475Z,13.12
2022-10-24T23:45:21.942Z,13.08
2022-10-24T23:47:53.782Z,13.04
2022-10-24T23:50:25.310Z,13.03
2022-10-24T23:52:57.086Z,12.99
2022-10-24T23:55:28.550Z,12.97
2022-10-24T23:58:01.403Z,12.99
